createdAt,value
2023-02-03T00:00:45.540Z,14.48
2023-02-03T00:03:12.838Z,15.19
2023-02-03T00:05:41.357Z,15.08
2023-02-03T00:08:09.258Z,14.81
2023-02-03T00:10:37.383Z,14.05
2023-02-03T00:13:06.509Z,15.32
2023-02-03T00:15:33.543Z,15.58
2023-02-03T00:18:00.595Z,14.96
2023-02-03T00:20:28.129Z,15.64
2023-02-03T00:22:55.269Z,15.28
2023-02-03T00:25:22.355Z,14.77
2023-02-03T00:27:49.459Z,15.08
2023-02-03T00:30:18.914Z,14.93
2023-02-03T00:32:45.869Z,15.46
2023-02-03T00:35:15.377Z,14.82
2023-02-03T00:37:42.312Z,15.67
2023-02-03T00:40:10.295Z,15.98
2023-02-03T00:42:40.199Z,14.61
2023-02-03T00:45:07.745Z,14.13
2023-02-03T00:47:37.335Z,14.17
2023-02-03T00:50:06.022Z,14.28
2023-02-03T00:52:32.983Z,13.00
2023-02-03T00:54:59.987Z,14.12
2023-02-03T00:57:27.252Z,14.13
2023-02-03T00:59:55.030Z,14.62
2023-02-03T01:02:22.162Z,14.76
2023-02-03T01:04:49.363Z,14.91
2023-02-03T01:07:16.714Z,13.84
2023-02-03T01:09:43.707Z,14.80
2023-02-03T01:12:10.867Z,13.91
2023-02-03T01:14:37.817Z,15.25
2023-02-03T01:17:05.067Z,15.13
2023-02-03T01:19:32.106Z,15.30
2023-02-03T01:21:59.092Z,15.80
2023-02-03T01:24:26.171Z,15.81
2023-02-03T01:26:53.213Z,14.46
2023-02-03T01:29:20.134Z,13.85
2023-02-03T01:31:47.200Z,13.83
2023-02-03T01:34:16.528Z,14.34
2023-02-03T01:36:46.843Z,13.95
2023-02-03T01:39:14.403Z,15.06
2023-02-03T01:41:41.832Z,14.49
2023-02-03T01:44:33.682Z,15.37
2023-02-03T01:47:00.775Z,14.96
2023-02-03T01:49:32.132Z,15.02
2023-02-03T01:51:59.485Z,15.34
2023-02-03T01:54:35.073Z,15.43
2023-02-03T01:57:10.415Z,14.69
2023-02-03T01:59:37.458Z,15.43
2023-02-03T02:02:04.873Z,16.40
2023-02-03T02:04:43.207Z,16.03
2023-02-03T02:07:10.274Z,15.90
2023-02-03T02:09:37.472Z,15.90
2023-02-03T02:12:04.523Z,15.00
2023-02-03T02:14:34.123Z,13.02
2023-02-03T02:17:20.031Z,13.48
2023-02-03T02:20:01.668Z,15.57
2023-02-03T02:22:47.179Z,14.74
2023-02-03T02:25:38.973Z,14.92
2023-02-03T02:28:11.840Z,14.71
2023-02-03T02:31:03.796Z,15.39
2023-02-03T02:33:43.916Z,15.43
2023-02-03T02:36:48.047Z,14.06
2023-02-03T02:39:30.173Z,14.47
2023-02-03T02:42:01.846Z,14.75
2023-02-03T02:44:44.371Z,14.10
2023-02-03T02:47:19.111Z,14.23
2023-02-03T02:50:12.178Z,13.36
2023-02-03T02:52:41.687Z,13.79
2023-02-03T02:55:17.202Z,13.17
2023-02-03T02:57:47.894Z,13.20
2023-02-03T03:00:15.942Z,13.69
2023-02-03T03:02:42.907Z,14.63
2023-02-03T03:05:11.866Z,14.19
2023-02-03T03:07:45.638Z,14.80
2023-02-03T03:10:16.030Z,15.34
2023-02-03T03:12:48.441Z,14.97
2023-02-03T03:15:24.764Z,15.16
2023-02-03T03:18:06.021Z,13.28
2023-02-03T03:20:33.819Z,13.72
2023-02-03T03:23:02.419Z,13.52
2023-02-03T03:25:35.535Z,14.34
2023-02-03T03:28:06.601Z,15.43
2023-02-03T03:30:36.322Z,15.11
2023-02-03T03:33:04.797Z,13.73
2023-02-03T03:35:53.240Z,13.95
2023-02-03T03:38:35.449Z,15.11
2023-02-03T03:41:22.753Z,14.13
2023-02-03T03:43:50.788Z,15.11
2023-02-03T03:46:22.134Z,15.06
2023-02-03T03:48:57.266Z,15.54
2023-02-03T03:51:32.512Z,15.29
2023-02-03T03:54:04.547Z,14.38
2023-02-03T03:56:44.885Z,15.07
2023-02-03T03:59:14.173Z,14.91
2023-02-03T04:01:42.300Z,15.79
2023-02-03T04:04:11.608Z,14.54
2023-02-03T04:06:39.854Z,14.91
2023-02-03T04:09:07.409Z,15.32
2023-02-03T04:11:52.986Z,14.32
2023-02-03T04:14:22.178Z,15.27
2023-02-03T04:16:49.296Z,16.05
2023-02-03T04:19:16.292Z,15.04
2023-02-03T04:21:43.296Z,15.50
2023-02-03T04:24:10.423Z,14.59
2023-02-03T04:26:39.930Z,14.39
2023-02-03T04:29:07.161Z,15.65
2023-02-03T04:31:34.235Z,15.33
2023-02-03T04:34:01.272Z,15.43
2023-02-03T04:36:28.290Z,14.71
2023-02-03T04:38:55.200Z,15.92
2023-02-03T04:41:22.159Z,15.71
2023-02-03T04:43:49.437Z,14.98
2023-02-03T04:46:16.627Z,13.62
2023-02-03T04:48:43.624Z,13.74
2023-02-03T04:51:10.630Z,15.37
2023-02-03T04:53:37.727Z,15.82
2023-02-03T04:56:07.685Z,16.12
2023-02-03T04:58:34.671Z,14.82
2023-02-03T05:01:10.110Z,14.86
2023-02-03T05:03:39.873Z,15.32
2023-02-03T05:06:06.970Z,13.77
2023-02-03T05:08:34.089Z,14.45
2023-02-03T05:11:02.373Z,14.08
2023-02-03T05:13:30.069Z,14.05
2023-02-03T05:15:57.097Z,12.95
2023-02-03T05:18:25.421Z,15.18
2023-02-03T05:20:52.421Z,13.58
2023-02-03T05:23:19.385Z,13.03
2023-02-03T05:25:46.447Z,12.83
2023-02-03T05:28:13.497Z,13.15
2023-02-03T05:30:40.623Z,13.30
2023-02-03T05:33:07.682Z,14.56
2023-02-03T05:35:34.729Z,13.65
2023-02-03T05:38:06.551Z,12.73
2023-02-03T05:41:05.608Z,12.90
2023-02-03T05:43:32.719Z,13.91
2023-02-03T05:46:04.824Z,13.01
2023-02-03T05:48:32.353Z,13.66
2023-02-03T05:51:01.911Z,13.56
2023-02-03T05:53:31.057Z,13.98
2023-02-03T05:55:58.047Z,12.88
2023-02-03T05:58:25.091Z,12.65
2023-02-03T06:00:52.266Z,12.33
2023-02-03T06:03:20.294Z,12.17
2023-02-03T06:05:47.338Z,13.51
2023-02-03T06:08:14.535Z,12.80
2023-02-03T06:10:41.546Z,12.34
2023-02-03T06:13:16.439Z,12.14
2023-02-03T06:15:44.343Z,11.57
2023-02-03T06:18:11.491Z,11.91
2023-02-03T06:20:38.562Z,11.58
2023-02-03T06:23:05.698Z,12.92
2023-02-03T06:25:33.281Z,11.95
2023-02-03T06:28:00.473Z,12.17
2023-02-03T06:30:28.017Z,11.82
2023-02-03T06:32:55.397Z,13.60
2023-02-03T06:35:22.562Z,12.23
2023-02-03T06:37:49.795Z,10.34
2023-02-03T06:40:17.051Z,10.52
2023-02-03T06:42:48.293Z,11.61
2023-02-03T06:45:15.775Z,10.88
2023-02-03T06:47:44.260Z,12.28
2023-02-03T06:50:14.136Z,10.80
2023-02-03T06:52:43.316Z,12.51
2023-02-03T06:55:12.616Z,13.85
2023-02-03T06:57:47.034Z,11.88
2023-02-03T07:00:18.986Z,11.77
2023-02-03T07:02:54.260Z,12.94
2023-02-03T07:05:22.248Z,12.25
2023-02-03T07:07:49.612Z,13.19
2023-02-03T07:10:16.701Z,13.19
2023-02-03T07:12:44.251Z,12.90
2023-02-03T07:15:12.439Z,11.58
2023-02-03T07:17:39.591Z,11.47
2023-02-03T07:20:07.178Z,13.04
2023-02-03T07:22:34.375Z,11.74
2023-02-03T07:25:01.487Z,13.19
2023-02-03T07:27:30.731Z,11.69
2023-02-03T07:29:57.654Z,12.28
2023-02-03T07:32:24.691Z,13.72
2023-02-03T07:34:51.675Z,11.90
2023-02-03T07:37:18.696Z,12.67
2023-02-03T07:39:46.224Z,13.23
2023-02-03T07:42:13.308Z,12.12
2023-02-03T07:44:40.467Z,11.57
2023-02-03T07:47:07.518Z,13.07
2023-02-03T07:49:34.541Z,12.52
2023-02-03T07:52:04.091Z,13.46
2023-02-03T07:54:33.672Z,10.27
2023-02-03T07:57:00.749Z,11.91
2023-02-03T07:59:27.822Z,11.16
2023-02-03T08:01:56.424Z,11.54
2023-02-03T08:04:24.488Z,13.05
2023-02-03T08:06:51.539Z,12.00
2023-02-03T08:09:18.623Z,11.87
2023-02-03T08:11:45.707Z,11.69
2023-02-03T08:14:44.160Z,10.89
2023-02-03T08:17:13.461Z,12.47
2023-02-03T08:19:43.371Z,10.71
2023-02-03T08:22:16.070Z,12.41
2023-02-03T08:24:45.960Z,12.71
2023-02-03T08:27:14.299Z,11.26
2023-02-03T08:29:41.481Z,12.75
2023-02-03T08:32:16.355Z,11.15
2023-02-03T08:34:43.796Z,11.56
2023-02-03T08:37:12.108Z,12.91
2023-02-03T08:39:39.646Z,12.50
2023-02-03T08:42:07.293Z,11.67
2023-02-03T08:44:34.671Z,11.33
2023-02-03T08:47:02.357Z,10.33
2023-02-03T08:49:30.281Z,11.11
2023-02-03T08:51:58.318Z,10.14
2023-02-03T08:54:26.244Z,12.67
2023-02-03T08:56:53.309Z,13.28
2023-02-03T08:59:20.372Z,12.28
2023-02-03T09:01:48.648Z,10.22
2023-02-03T09:04:24.641Z,11.69
2023-02-03T09:06:54.556Z,12.23
2023-02-03T09:09:21.965Z,10.77
2023-02-03T09:11:49.192Z,11.84
2023-02-03T09:14:16.187Z,11.87
2023-02-03T09:16:45.370Z,12.61
2023-02-03T09:19:13.560Z,10.64
2023-02-03T09:21:45.302Z,11.96
2023-02-03T09:24:18.691Z,10.66
2023-02-03T09:26:45.744Z,11.78
2023-02-03T09:29:15.072Z,11.91
2023-02-03T09:31:42.062Z,11.30
2023-02-03T09:34:09.261Z,11.55
2023-02-03T09:36:37.614Z,11.77
2023-02-03T09:39:04.687Z,11.84
2023-02-03T09:41:52.787Z,10.10
2023-02-03T09:44:35.300Z,12.60
2023-02-03T09:47:09.530Z,12.94
2023-02-03T09:49:50.621Z,11.81
2023-02-03T09:52:25.842Z,10.36
2023-02-03T09:55:05.019Z,11.06
2023-02-03T09:57:37.078Z,10.56
2023-02-03T10:00:27.441Z,10.13
2023-02-03T10:03:12.878Z,11.83
2023-02-03T10:05:54.918Z,11.34
2023-02-03T10:08:28.792Z,12.79
2023-02-03T10:11:28.248Z,12.79
2023-02-03T10:14:13.823Z,13.23
2023-02-03T10:17:11.707Z,13.51
2023-02-03T10:20:00.156Z,13.02
2023-02-03T10:22:29.165Z,11.56
2023-02-03T10:25:30.901Z,11.65
2023-02-03T10:28:01.546Z,11.93
2023-02-03T10:30:34.911Z,11.64
2023-02-03T10:33:14.618Z,12.09
2023-02-03T10:35:56.440Z,13.14
2023-02-03T10:38:39.418Z,13.08
2023-02-03T10:41:06.574Z,12.82
2023-02-03T10:43:51.474Z,13.12
2023-02-03T10:46:29.798Z,14.69
2023-02-03T10:48:57.211Z,13.41
2023-02-03T10:51:26.575Z,13.63
2023-02-03T10:53:53.758Z,15.82
2023-02-03T10:56:36.865Z,13.53
2023-02-03T10:59:04.449Z,11.74
2023-02-03T11:01:31.319Z,14.97
2023-02-03T11:04:01.944Z,14.66
2023-02-03T11:06:29.042Z,14.50
2023-02-03T11:08:56.327Z,15.50
2023-02-03T11:11:34.213Z,14.02
2023-02-03T11:14:13.145Z,13.21
2023-02-03T11:16:41.173Z,15.02
2023-02-03T11:19:20.595Z,14.82
2023-02-03T11:21:50.502Z,12.52
2023-02-03T11:24:25.964Z,13.14
2023-02-03T11:26:55.890Z,14.06
2023-02-03T11:29:31.460Z,11.44
2023-02-03T11:32:00.547Z,13.08
2023-02-03T11:34:33.191Z,12.22
2023-02-03T11:37:30.017Z,13.43
2023-02-03T11:40:11.088Z,13.59
2023-02-03T11:42:44.031Z,11.63
2023-02-03T11:45:15.776Z,12.21
2023-02-03T11:47:56.231Z,12.69
2023-02-03T11:50:29.398Z,15.02
2023-02-03T11:52:59.853Z,13.10
2023-02-03T11:55:46.006Z,14.18
2023-02-03T11:58:19.095Z,11.23
2023-02-03T12:01:08.101Z,13.10
2023-02-03T12:03:34.947Z,14.07
2023-02-03T12:06:23.107Z,12.37
2023-02-03T12:09:46.777Z,13.38
2023-02-03T12:12:31.182Z,14.65
2023-02-03T12:15:00.960Z,12.21
2023-02-03T12:17:33.987Z,15.19
2023-02-03T12:20:07.140Z,14.47
2023-02-03T12:22:48.532Z,13.09
2023-02-03T12:26:03.328Z,13.81
2023-02-03T12:28:59.143Z,15.04
2023-02-03T12:31:35.520Z,14.16
2023-02-03T12:34:21.126Z,16.24
2023-02-03T12:37:07.604Z,14.45
2023-02-03T12:39:48.316Z,14.03
2023-02-03T12:42:23.580Z,12.80
2023-02-03T12:45:08.888Z,15.51
2023-02-03T12:47:41.869Z,13.60
2023-02-03T12:50:18.557Z,14.17
2023-02-03T12:53:00.757Z,15.17
2023-02-03T12:55:39.633Z,15.59
2023-02-03T12:58:10.399Z,15.70
2023-02-03T13:00:48.332Z,18.07
2023-02-03T13:03:18.963Z,17.26
2023-02-03T13:06:19.931Z,14.44
2023-02-03T13:09:12.987Z,14.11
2023-02-03T13:12:12.585Z,15.02
2023-02-03T13:14:46.609Z,17.18
2023-02-03T13:17:30.987Z,18.48
2023-02-03T13:20:13.998Z,17.60
2023-02-03T13:22:41.030Z,17.77
2023-02-03T13:25:18.969Z,16.36
2023-02-03T13:28:14.658Z,17.43
2023-02-03T13:31:19.568Z,17.24
2023-02-03T13:34:17.029Z,17.34
2023-02-03T13:37:05.535Z,16.20
2023-02-03T13:40:01.815Z,17.70
2023-02-03T13:42:31.889Z,19.11
2023-02-03T13:45:17.859Z,18.25
2023-02-03T13:47:50.794Z,18.88
2023-02-03T13:50:26.450Z,19.34
2023-02-03T13:53:15.099Z,19.13
2023-02-03T13:56:02.585Z,19.45
2023-02-03T13:58:32.326Z,18.91
2023-02-03T14:01:19.453Z,19.53
2023-02-03T14:03:46.977Z,19.13
2023-02-03T14:06:49.736Z,18.85
2023-02-03T14:09:31.763Z,19.50
2023-02-03T14:12:22.159Z,19.68
2023-02-03T14:14:52.012Z,19.48
2023-02-03T14:17:34.205Z,19.13
2023-02-03T14:20:21.571Z,18.91
2023-02-03T14:22:48.554Z,18.49
2023-02-03T14:25:18.239Z,19.21
2023-02-03T14:27:45.421Z,18.23
2023-02-03T14:30:14.724Z,18.75
2023-02-03T14:32:48.747Z,18.84
2023-02-03T14:35:20.523Z,19.05
2023-02-03T14:37:55.989Z,18.63
2023-02-03T14:40:48.141Z,19.23
2023-02-03T14:43:26.986Z,19.21
2023-02-03T14:46:00.675Z,18.95
2023-02-03T14:48:36.624Z,19.15
2023-02-03T14:51:09.329Z,19.60
2023-02-03T14:54:14.075Z,18.84
2023-02-03T14:57:18.901Z,18.29
2023-02-03T14:59:54.791Z,17.53
2023-02-03T15:02:27.264Z,17.70
2023-02-03T15:05:17.201Z,17.53
2023-02-03T15:07:49.736Z,16.74
2023-02-03T15:10:25.471Z,18.10
2023-02-03T15:12:58.274Z,17.30
2023-02-03T15:15:30.010Z,16.83
2023-02-03T15:17:59.672Z,17.98
2023-02-03T15:20:44.175Z,17.54
2023-02-03T15:23:23.182Z,17.16
2023-02-03T15:26:01.810Z,17.84
2023-02-03T15:28:30.062Z,17.04
2023-02-03T15:31:16.737Z,20.13
2023-02-03T15:33:44.726Z,19.36
2023-02-03T15:36:24.288Z,-140.73
2023-02-03T15:39:33.882Z,-140.73
2023-02-03T15:42:01.255Z,-140.73
2023-02-03T15:44:40.050Z,-140.73
2023-02-03T15:47:16.645Z,-140.73
2023-02-03T15:49:44.055Z,-140.73
2023-02-03T15:52:17.103Z,-140.73
2023-02-03T15:54:53.488Z,-140.73
2023-02-03T15:57:28.237Z,-140.73
2023-02-03T16:00:08.513Z,19.36
2023-02-03T16:02:42.997Z,19.35
2023-02-03T16:05:27.271Z,19.51
2023-02-03T16:07:54.395Z,19.12
2023-02-03T16:10:31.247Z,19.12
2023-02-03T16:14:33.741Z,19.56
2023-02-03T16:17:06.007Z,20.30
2023-02-03T16:19:38.494Z,19.05
2023-02-03T16:22:25.532Z,19.66
2023-02-03T16:24:52.566Z,18.94
2023-02-03T16:27:20.457Z,18.32
2023-02-03T16:30:06.099Z,20.59
2023-02-03T16:32:51.734Z,19.28
2023-02-03T16:35:37.401Z,19.29
2023-02-03T16:38:36.803Z,19.78
2023-02-03T16:41:22.899Z,21.46
2023-02-03T16:44:08.394Z,21.96
2023-02-03T16:46:54.026Z,22.26
2023-02-03T16:49:39.660Z,22.65
2023-02-03T16:52:08.604Z,20.42
2023-02-03T16:54:35.552Z,20.72
2023-02-03T16:57:02.502Z,21.44
2023-02-03T16:59:29.450Z,21.93
2023-02-03T17:01:56.485Z,21.42
2023-02-03T17:04:23.495Z,21.21
2023-02-03T17:06:51.386Z,19.83
2023-02-03T17:09:23.548Z,19.56
2023-02-03T17:11:51.130Z,20.81
2023-02-03T17:14:18.105Z,20.72
2023-02-03T17:16:45.212Z,19.72
2023-02-03T17:19:12.890Z,20.70
2023-02-03T17:21:39.877Z,20.77
2023-02-03T17:24:07.766Z,19.95
2023-02-03T17:26:35.131Z,20.40
2023-02-03T17:29:03.569Z,19.91
2023-02-03T17:31:31.638Z,19.20
2023-02-03T17:33:59.245Z,19.14
2023-02-03T17:36:26.607Z,19.57
2023-02-03T17:55:25.064Z,56.56
2023-02-03T17:57:52.279Z,55.89
2023-02-03T18:00:19.654Z,59.74
2023-02-03T18:02:51.205Z,-140.73
2023-02-03T18:05:18.811Z,-140.73
2023-02-03T18:07:45.899Z,-140.73
2023-02-03T18:10:13.068Z,-140.73
2023-02-03T18:12:40.020Z,-140.73
2023-02-03T18:15:07.330Z,-140.73
2023-02-03T18:17:36.172Z,-140.73
2023-02-03T18:20:04.063Z,-140.73
2023-02-03T18:22:31.097Z,-140.73
2023-02-03T18:24:58.369Z,-140.73
2023-02-03T18:27:25.398Z,-140.73
2023-02-03T18:29:54.731Z,-140.73
2023-02-03T18:32:21.877Z,-140.73
2023-02-03T18:34:48.836Z,-140.73
2023-02-03T18:37:15.849Z,-140.73
2023-02-03T18:39:42.864Z,-140.73
2023-02-03T18:42:10.155Z,-140.73
2023-02-03T18:44:37.140Z,-140.73
2023-02-03T18:47:07.718Z,-140.73
2023-02-03T18:49:35.882Z,-140.73
2023-02-03T18:52:03.950Z,-140.73
2023-02-03T18:54:31.045Z,-140.73
2023-02-03T18:57:00.448Z,-140.73
2023-02-03T18:59:27.538Z,-140.73
2023-02-03T19:01:54.620Z,-140.73
2023-02-03T19:04:21.611Z,-140.73
2023-02-03T19:06:52.659Z,-140.73
2023-02-03T19:09:22.221Z,-140.73
2023-02-03T19:11:49.529Z,-140.73
2023-02-03T19:14:16.792Z,-140.73
2023-02-03T19:16:44.092Z,-140.73
2023-02-03T19:19:13.361Z,-140.73
2023-02-03T19:21:40.326Z,-140.73
2023-02-03T19:24:07.545Z,-140.73
2023-02-03T19:26:35.103Z,-140.73
2023-02-03T19:29:02.132Z,-140.73
2023-02-03T19:31:31.569Z,-140.73
2023-02-03T19:33:59.915Z,-140.73
2023-02-03T19:36:30.969Z,-140.73
2023-02-03T19:38:58.128Z,-140.73
2023-02-03T19:41:27.695Z,-140.73
2023-02-03T19:43:54.721Z,-140.73
2023-02-03T19:46:22.255Z,-140.73
2023-02-03T19:48:50.532Z,-140.73
2023-02-03T19:51:17.844Z,-140.73
2023-02-03T19:53:44.856Z,-140.73
2023-02-03T19:56:13.852Z,-140.73
2023-02-03T19:58:41.130Z,-140.73
2023-02-03T20:01:08.832Z,-140.73
2023-02-03T20:03:35.804Z,-140.73
2023-02-03T20:06:03.905Z,-140.73
2023-02-03T20:08:30.954Z,-140.73
2023-02-03T20:10:58.081Z,-140.73
2023-02-03T20:13:25.198Z,-140.73
2023-02-03T20:15:52.202Z,-140.73
2023-02-03T20:18:19.554Z,-140.73
2023-02-03T20:20:53.958Z,-140.73
2023-02-03T20:23:21.743Z,-140.73
2023-02-03T20:25:50.416Z,-140.73
2023-02-03T20:28:17.857Z,-140.73
2023-02-03T20:30:45.602Z,-140.73
2023-02-03T20:33:12.869Z,-140.73
2023-02-03T20:35:39.885Z,-140.73
2023-02-03T20:38:07.049Z,-140.73
2023-02-03T20:40:36.433Z,-140.73
2023-02-03T20:43:13.226Z,-140.73
2023-02-03T20:45:40.631Z,-140.73
2023-02-03T20:48:14.011Z,-140.73
2023-02-03T20:50:47.153Z,-140.73
2023-02-03T20:53:20.253Z,-140.73
